createdAt,value
2022-12-23T00:02:15.471Z,30.13
2022-12-23T00:04:37.419Z,28.40
2022-12-23T00:06:59.243Z,29.20
2022-12-23T00:09:21.687Z,32.30
2022-12-23T00:12:03.546Z,27.70
2022-12-23T00:14:44.237Z,26.27
2022-12-23T00:17:17.541Z,26.07
2022-12-23T00:19:43.696Z,27.57
2022-12-23T00:22:05.585Z,26.80
2022-12-23T00:24:27.421Z,29.80
2022-12-23T00:26:49.197Z,27.90
2022-12-23T00:29:11.448Z,29.67
2022-12-23T00:31:33.372Z,27.63
2022-12-23T00:33:56.515Z,31.77
2022-12-23T00:36:30.693Z,28.93
2022-12-23T00:39:11.698Z,23.48
2022-12-23T00:41:53.360Z,28.93
2022-12-23T00:44:15.265Z,26.87
2022-12-23T00:46:37.853Z,22.40
2022-12-23T00:49:18.008Z,26.80
2022-12-23T00:51:39.965Z,27.03
2022-12-23T00:54:02.771Z,27.03
2022-12-23T00:56:24.697Z,29.23
2022-12-23T00:58:46.590Z,29.37
2022-12-23T01:01:27.247Z,26.60
2022-12-23T01:04:07.693Z,29.20
2022-12-23T01:06:29.593Z,32.00
2022-12-23T01:08:51.440Z,32.13
2022-12-23T01:11:13.407Z,28.33
2022-12-23T01:13:37.013Z,24.77
2022-12-23T01:16:13.483Z,27.42
2022-12-23T01:18:38.958Z,27.47
2022-12-23T01:21:10.872Z,26.87
2022-12-23T01:23:34.091Z,24.90
2022-12-23T01:26:01.481Z,25.13
2022-12-23T01:28:23.497Z,29.27
2022-12-23T01:30:45.349Z,25.67
2022-12-23T01:33:07.160Z,26.97
2022-12-23T01:35:29.007Z,22.50
2022-12-23T01:37:50.918Z,25.13
2022-12-23T01:40:13.007Z,27.33
2022-12-23T01:42:43.597Z,23.27
2022-12-23T01:45:19.154Z,28.47
2022-12-23T01:47:43.867Z,25.00
2022-12-23T01:50:14.528Z,20.93
2022-12-23T01:52:47.594Z,25.93
2022-12-23T01:55:11.647Z,27.17
2022-12-23T01:57:36.050Z,24.58
2022-12-23T02:00:17.785Z,23.87
2022-12-23T02:03:01.809Z,24.10
2022-12-23T02:05:24.632Z,29.53
2022-12-23T02:08:05.687Z,27.20
2022-12-23T02:10:44.266Z,27.03
2022-12-23T02:13:34.705Z,21.40
2022-12-23T02:16:18.997Z,23.13
2022-12-23T02:19:14.439Z,26.15
2022-12-23T02:22:04.937Z,20.98
2022-12-23T02:25:29.481Z,23.67
2022-12-23T02:28:51.515Z,25.20
2022-12-23T02:31:52.426Z,27.17
2022-12-23T02:34:30.072Z,25.23
2022-12-23T02:37:22.899Z,24.30
2022-12-23T02:39:59.114Z,23.47
2022-12-23T02:42:31.880Z,22.73
2022-12-23T02:44:59.698Z,24.60
2022-12-23T02:47:41.843Z,22.93
2022-12-23T02:50:15.176Z,26.57
2022-12-23T02:52:41.429Z,20.57
2022-12-23T02:55:31.214Z,21.70
2022-12-23T02:57:56.996Z,22.87
2022-12-23T03:00:19.639Z,23.63
2022-12-23T03:02:43.127Z,22.87
2022-12-23T03:05:06.796Z,19.40
2022-12-23T03:07:38.956Z,17.50
2022-12-23T03:10:18.659Z,22.30
2022-12-23T03:12:58.849Z,22.43
2022-12-23T03:15:48.032Z,21.13
2022-12-23T03:18:51.388Z,19.00
2022-12-23T03:21:28.889Z,20.50
2022-12-23T03:24:05.448Z,21.30
2022-12-23T03:26:42.077Z,22.10
2022-12-23T03:29:26.361Z,23.77
2022-12-23T03:31:51.841Z,22.87
2022-12-23T03:34:23.067Z,22.47
2022-12-23T03:36:55.767Z,21.43
2022-12-23T03:39:23.493Z,26.10
2022-12-23T03:41:55.691Z,24.03
2022-12-23T03:44:26.837Z,21.73
2022-12-23T03:47:04.168Z,24.53
2022-12-23T03:49:46.703Z,21.70
2022-12-23T03:52:21.133Z,18.53
2022-12-23T03:57:13.931Z,22.70
2022-12-23T03:59:42.654Z,19.80
2022-12-23T04:02:35.462Z,19.43
2022-12-23T04:05:18.521Z,24.17
2022-12-23T04:08:03.705Z,17.27
2022-12-23T04:10:26.976Z,17.05
2022-12-23T04:12:50.330Z,16.57
2022-12-23T04:15:13.282Z,18.77
2022-12-23T04:17:36.105Z,16.60
2022-12-23T04:19:57.967Z,16.77
2022-12-23T04:22:19.798Z,16.57
2022-12-23T04:24:42.503Z,20.33
2022-12-23T04:27:04.788Z,17.90
2022-12-23T04:29:26.653Z,19.30
2022-12-23T04:31:48.487Z,23.87
2022-12-23T04:34:10.491Z,17.20
2022-12-23T04:36:32.457Z,19.83
2022-12-23T04:38:54.341Z,16.93
2022-12-23T04:41:16.213Z,19.00
2022-12-23T04:43:38.069Z,18.37
2022-12-23T04:45:59.902Z,17.07
2022-12-23T04:48:21.738Z,20.77
2022-12-23T04:50:43.673Z,17.00
2022-12-23T04:53:05.455Z,18.17
2022-12-23T04:55:27.302Z,18.47
2022-12-23T04:57:49.268Z,15.70
2022-12-23T05:00:11.859Z,16.63
2022-12-23T05:02:33.932Z,16.27
2022-12-23T05:04:55.831Z,20.00
2022-12-23T05:07:17.885Z,16.60
2022-12-23T05:09:39.775Z,16.80
2022-12-23T05:12:01.617Z,17.03
2022-12-23T05:14:23.495Z,16.67
2022-12-23T05:16:45.342Z,17.17
2022-12-23T05:19:07.812Z,15.50
2022-12-23T05:21:29.704Z,14.50
2022-12-23T05:23:51.785Z,14.63
2022-12-23T05:26:13.635Z,15.17
2022-12-23T05:28:35.900Z,17.73
2022-12-23T05:31:07.378Z,16.97
2022-12-23T05:33:30.108Z,19.30
2022-12-23T05:35:51.964Z,15.17
2022-12-23T05:38:13.947Z,15.27
2022-12-23T05:40:35.867Z,17.33
2022-12-23T05:42:57.922Z,19.20
2022-12-23T05:45:20.820Z,22.13
2022-12-23T05:47:42.636Z,19.93
2022-12-23T05:50:05.305Z,16.70
2022-12-23T05:52:27.170Z,19.40
2022-12-23T05:54:49.034Z,20.07
2022-12-23T05:57:10.945Z,20.40
2022-12-23T05:59:32.798Z,19.10
2022-12-23T06:01:54.839Z,23.00
2022-12-23T06:04:16.774Z,21.87
2022-12-23T06:06:38.700Z,24.03
2022-12-23T06:09:00.653Z,21.80
2022-12-23T06:11:22.759Z,20.77
2022-12-23T06:13:44.616Z,23.87
2022-12-23T06:16:06.918Z,22.27
2022-12-23T06:18:28.727Z,23.77
2022-12-23T06:20:50.547Z,22.53
2022-12-23T06:23:12.455Z,24.63
2022-12-23T06:25:34.334Z,23.00
2022-12-23T06:27:56.260Z,22.93
2022-12-23T06:30:18.156Z,20.47
2022-12-23T06:32:40.873Z,18.73
2022-12-23T06:35:02.760Z,24.03
2022-12-23T06:37:24.694Z,22.07
2022-12-23T06:39:46.713Z,21.33
2022-12-23T06:42:08.463Z,20.90
2022-12-23T06:44:30.391Z,26.90
2022-12-23T06:46:52.202Z,23.47
2022-12-23T06:49:14.265Z,20.37
2022-12-23T06:51:36.217Z,24.33
2022-12-23T06:54:00.054Z,28.93
2022-12-23T06:56:22.200Z,25.23
2022-12-23T06:58:44.346Z,24.97
2022-12-23T07:01:06.722Z,31.07
2022-12-23T07:03:28.632Z,34.80
2022-12-23T07:05:52.028Z,32.83
2022-12-23T07:08:14.019Z,37.30
2022-12-23T07:10:35.909Z,37.10
2022-12-23T07:12:57.745Z,43.17
2022-12-23T07:15:19.612Z,41.67
2022-12-23T07:17:41.383Z,39.33
2022-12-23T07:20:03.864Z,40.17
2022-12-23T07:22:25.921Z,36.20
2022-12-23T07:24:47.747Z,39.77
2022-12-23T07:27:09.664Z,36.30
2022-12-23T07:29:31.578Z,38.27
2022-12-23T07:31:53.866Z,34.10
2022-12-23T07:34:15.922Z,33.37
2022-12-23T07:36:37.931Z,32.27
2022-12-23T07:38:59.794Z,28.47
2022-12-23T07:41:21.640Z,25.77
2022-12-23T07:43:43.563Z,28.10
2022-12-23T07:46:10.175Z,29.03
2022-12-23T07:48:32.186Z,30.90
2022-12-23T07:51:00.514Z,25.93
2022-12-23T07:53:22.335Z,29.53
2022-12-23T07:55:44.252Z,27.33
2022-12-23T07:58:06.160Z,23.63
2022-12-23T08:00:28.021Z,26.43
2022-12-23T08:02:50.100Z,22.67
2022-12-23T08:05:13.717Z,23.83
2022-12-23T08:07:36.031Z,22.70
2022-12-23T08:09:57.892Z,28.37
2022-12-23T08:12:19.778Z,25.83
2022-12-23T08:14:42.167Z,27.57
2022-12-23T08:17:04.112Z,31.27
2022-12-23T08:19:26.039Z,30.10
2022-12-23T08:21:48.024Z,28.57
2022-12-23T08:24:09.866Z,30.40
2022-12-23T08:26:33.075Z,32.97
2022-12-23T08:28:54.971Z,32.90
2022-12-23T08:31:20.592Z,34.57
2022-12-23T08:33:46.203Z,27.57
2022-12-23T08:36:16.084Z,38.93
2022-12-23T08:38:41.675Z,36.23
2022-12-23T08:41:03.784Z,34.53
2022-12-23T08:43:30.216Z,37.23
2022-12-23T08:45:55.561Z,38.83
2022-12-23T08:48:17.748Z,33.03
2022-12-23T08:50:45.622Z,36.30
2022-12-23T08:53:08.194Z,40.53
2022-12-23T08:55:30.032Z,43.00
2022-12-23T08:57:51.944Z,43.60
2022-12-23T09:00:14.406Z,47.17
2022-12-23T09:02:36.388Z,47.53
2022-12-23T09:04:58.448Z,44.93
2022-12-23T09:07:20.309Z,46.70
2022-12-23T09:09:42.178Z,50.17
2022-12-23T09:12:04.588Z,50.13
2022-12-23T09:14:26.446Z,50.40
2022-12-23T09:16:52.500Z,52.80
2022-12-23T09:19:14.464Z,49.73
2022-12-23T09:21:36.789Z,50.10
2022-12-23T09:23:58.732Z,50.93
2022-12-23T09:26:28.068Z,50.27
2022-12-23T09:28:50.594Z,49.87
2022-12-23T09:31:14.145Z,52.97
2022-12-23T09:33:36.585Z,56.75
2022-12-23T09:36:03.696Z,49.93
2022-12-23T09:38:25.582Z,57.03
2022-12-23T09:40:47.507Z,47.93
2022-12-23T09:43:41.623Z,51.37
2022-12-23T09:46:22.938Z,45.17
2022-12-23T09:49:13.409Z,46.70
2022-12-23T09:51:35.463Z,45.40
2022-12-23T09:54:16.863Z,44.37
2022-12-23T09:56:57.799Z,41.70
2022-12-23T09:59:22.764Z,46.20
2022-12-23T10:02:03.836Z,41.67
2022-12-23T10:04:55.316Z,42.93
2022-12-23T10:07:31.145Z,42.83
2022-12-23T10:09:58.191Z,35.63
2022-12-23T10:12:43.554Z,38.30
2022-12-23T10:15:48.759Z,41.40
2022-12-23T10:18:42.233Z,39.55
2022-12-23T10:21:12.329Z,36.50
2022-12-23T10:23:39.901Z,36.10
2022-12-23T10:26:12.545Z,35.47
2022-12-23T10:28:34.597Z,31.83
2022-12-23T10:31:38.033Z,32.97
2022-12-23T10:34:06.941Z,33.67
2022-12-23T10:37:08.743Z,28.60
2022-12-23T10:39:54.781Z,32.77
2022-12-23T10:42:36.314Z,30.20
2022-12-23T10:45:31.879Z,27.20
2022-12-23T10:48:26.599Z,29.08
2022-12-23T10:51:00.416Z,27.73
2022-12-23T10:53:46.518Z,56.73
2022-12-23T10:56:09.266Z,30.33
2022-12-23T10:58:31.436Z,29.03
2022-12-23T11:01:09.950Z,24.73
2022-12-23T11:03:48.005Z,28.93
2022-12-23T11:06:12.759Z,28.80
2022-12-23T11:08:38.103Z,27.53
2022-12-23T11:11:03.784Z,26.80
2022-12-23T11:13:44.027Z,27.50
2022-12-23T11:16:25.927Z,24.50
2022-12-23T11:19:13.850Z,25.50
2022-12-23T11:21:35.705Z,24.07
2022-12-23T11:24:18.505Z,26.83
2022-12-23T11:26:41.119Z,22.60
2022-12-23T11:29:16.557Z,27.70
2022-12-23T11:31:39.335Z,21.23
2022-12-23T11:34:05.975Z,26.20
2022-12-23T11:36:30.729Z,19.77
2022-12-23T11:39:19.596Z,25.50
2022-12-23T11:41:50.295Z,24.60
2022-12-23T11:44:27.521Z,21.87
2022-12-23T11:46:50.459Z,23.17
2022-12-23T11:49:31.512Z,23.80
2022-12-23T11:52:13.406Z,22.13
2022-12-23T11:54:35.509Z,18.63
2022-12-23T11:56:59.263Z,22.00
2022-12-23T11:59:49.263Z,19.20
2022-12-23T12:02:43.284Z,19.63
2022-12-23T12:05:22.729Z,19.60
2022-12-23T12:07:46.677Z,19.80
2022-12-23T12:10:20.928Z,19.08
2022-12-23T12:12:43.187Z,18.20
2022-12-23T12:15:07.103Z,17.53
2022-12-23T12:17:47.305Z,18.95
2022-12-23T12:20:30.254Z,16.17
2022-12-23T12:23:02.332Z,19.57
2022-12-23T12:25:39.673Z,19.17
2022-12-23T12:28:07.418Z,14.43
2022-12-23T12:30:40.885Z,15.60
2022-12-23T12:33:17.341Z,16.77
2022-12-23T12:35:45.740Z,17.43
2022-12-23T12:38:26.883Z,16.07
2022-12-23T12:40:56.910Z,13.63
2022-12-23T12:43:27.951Z,15.70
2022-12-23T12:46:31.370Z,16.90
2022-12-23T12:49:12.539Z,19.73
2022-12-23T12:51:54.395Z,18.43
2022-12-23T12:54:40.542Z,18.53
2022-12-23T12:57:04.254Z,23.20
2022-12-23T12:59:40.235Z,21.50
2022-12-23T13:02:39.060Z,28.17
2022-12-23T13:05:15.769Z,22.40
2022-12-23T13:08:15.928Z,19.03
2022-12-23T13:11:26.429Z,22.70
2022-12-23T13:14:02.162Z,17.47
2022-12-23T13:16:45.197Z,16.30
2022-12-23T13:19:32.115Z,17.53
2022-12-23T13:22:13.824Z,17.43
2022-12-23T13:24:57.657Z,16.53
2022-12-23T13:27:48.483Z,17.80
2022-12-23T13:30:23.790Z,14.60
2022-12-23T13:33:06.966Z,18.27
2022-12-23T13:35:38.220Z,30.53
2022-12-23T13:38:41.037Z,22.00
2022-12-23T13:41:40.291Z,19.70
2022-12-23T13:44:07.874Z,17.63
2022-12-23T13:47:27.181Z,18.93
2022-12-23T13:50:10.282Z,41.80
2022-12-23T13:53:16.493Z,18.80
2022-12-23T13:56:17.401Z,27.00
2022-12-23T13:58:41.436Z,16.07
2022-12-23T14:01:03.337Z,14.55
2022-12-23T14:03:33.858Z,13.37
2022-12-23T14:05:55.784Z,15.80
2022-12-23T14:08:51.485Z,18.20
2022-12-23T14:14:01.966Z,13.57
2022-12-23T14:16:27.065Z,13.07
2022-12-23T14:19:13.651Z,11.37
2022-12-23T14:22:25.469Z,11.93
2022-12-23T14:25:11.512Z,9.47
2022-12-23T14:28:40.300Z,10.93
2022-12-23T14:31:05.647Z,49.67
2022-12-23T14:33:36.650Z,41.57
2022-12-23T14:36:27.201Z,47.90
2022-12-23T14:39:13.928Z,60.47
2022-12-23T14:41:52.390Z,17.93
2022-12-23T14:44:43.724Z,18.13
2022-12-23T14:47:32.900Z,12.63
2022-12-23T14:49:54.926Z,9.50
2022-12-23T14:52:58.924Z,7.23
2022-12-23T14:55:41.570Z,8.20
2022-12-23T14:58:56.303Z,11.07
2022-12-23T15:01:43.748Z,8.90
2022-12-23T15:04:30.231Z,14.10
2022-12-23T15:07:26.365Z,15.53
2022-12-23T15:10:01.054Z,10.63
2022-12-23T15:12:40.637Z,9.63
2022-12-23T15:15:19.913Z,7.97
2022-12-23T15:17:42.365Z,7.87
2022-12-23T15:20:10.469Z,7.23
2022-12-23T15:22:33.044Z,7.20
2022-12-23T15:24:54.968Z,7.40
2022-12-23T15:27:29.330Z,7.43
2022-12-23T15:29:54.613Z,7.97
2022-12-23T15:34:41.793Z,15.93
2022-12-23T15:37:09.814Z,8.43
2022-12-23T15:39:35.912Z,21.20
2022-12-23T15:41:58.105Z,8.63
2022-12-23T15:44:33.424Z,10.90
2022-12-23T15:46:55.350Z,10.67
2022-12-23T15:49:21.736Z,11.13
2022-12-23T15:52:08.049Z,11.60
2022-12-23T15:55:15.098Z,9.27
2022-12-23T15:57:50.325Z,12.17
2022-12-23T16:00:39.945Z,11.67
2022-12-23T16:03:04.763Z,10.93
2022-12-23T16:05:37.786Z,9.10
2022-12-23T16:08:29.917Z,10.13
2022-12-23T16:11:16.231Z,11.30
2022-12-23T16:13:41.589Z,10.10
2022-12-23T16:16:41.088Z,10.80
2022-12-23T16:19:03.627Z,11.67
2022-12-23T16:21:38.168Z,19.23
2022-12-23T16:24:01.822Z,12.10
2022-12-23T16:26:23.962Z,14.23
2022-12-23T16:28:51.224Z,14.03
2022-12-23T16:31:17.801Z,13.97
2022-12-23T16:33:53.722Z,14.73
2022-12-23T16:36:26.349Z,17.97
2022-12-23T16:38:51.426Z,16.13
2022-12-23T16:41:13.707Z,17.27
2022-12-23T16:43:35.952Z,17.17
2022-12-23T16:45:58.863Z,20.63
2022-12-23T16:48:31.549Z,18.70
2022-12-23T16:50:54.808Z,18.47
2022-12-23T16:53:16.876Z,15.87
2022-12-23T16:55:44.377Z,17.40
2022-12-23T16:58:10.427Z,20.17
2022-12-23T17:00:33.135Z,17.00
2022-12-23T17:02:55.613Z,17.47
2022-12-23T17:05:21.199Z,15.97
2022-12-23T17:07:45.637Z,14.90
2022-12-23T17:10:09.011Z,17.97
2022-12-23T17:12:31.045Z,17.27
2022-12-23T17:14:52.940Z,11.00
2022-12-23T17:17:16.278Z,13.50
2022-12-23T17:19:38.169Z,12.30
2022-12-23T17:22:03.183Z,12.37
2022-12-23T17:24:27.352Z,12.67
2022-12-23T17:26:50.728Z,16.13
2022-12-23T17:29:13.234Z,13.47
2022-12-23T17:31:35.410Z,19.20
2022-12-23T17:33:57.353Z,20.10
2022-12-23T17:36:19.647Z,18.97
2022-12-23T17:38:41.636Z,18.03
2022-12-23T17:41:04.502Z,20.07
2022-12-23T17:43:27.015Z,25.53
2022-12-23T17:45:49.043Z,23.10
2022-12-23T17:48:18.018Z,19.67
2022-12-23T17:50:43.843Z,16.50
2022-12-23T17:53:05.843Z,24.07
2022-12-23T17:55:27.870Z,19.03
2022-12-23T17:57:50.504Z,20.03
2022-12-23T18:00:14.001Z,20.93
2022-12-23T18:02:36.128Z,20.10
2022-12-23T18:04:59.946Z,24.73
2022-12-23T18:07:21.942Z,21.27
2022-12-23T18:09:43.904Z,25.27
2022-12-23T18:12:07.059Z,31.33
2022-12-23T18:14:29.204Z,27.37
2022-12-23T18:16:51.203Z,26.57
2022-12-23T18:19:20.366Z,31.20
2022-12-23T18:21:42.229Z,28.73
2022-12-23T18:24:04.575Z,31.63
2022-12-23T18:26:26.909Z,25.53
2022-12-23T18:28:49.046Z,19.10
2022-12-23T18:31:29.301Z,22.73
2022-12-23T18:33:52.197Z,27.27
2022-12-23T18:36:27.143Z,23.77
2022-12-23T18:38:49.651Z,23.90
2022-12-23T18:41:12.937Z,25.73
2022-12-23T18:43:34.824Z,26.40
2022-12-23T18:45:57.425Z,25.57
2022-12-23T18:48:19.420Z,26.03
2022-12-23T18:50:42.885Z,29.37
2022-12-23T18:53:07.597Z,33.57
2022-12-23T18:55:33.169Z,26.10
2022-12-23T18:57:55.372Z,24.50
2022-12-23T19:00:24.632Z,30.77
2022-12-23T19:02:48.821Z,28.07
2022-12-23T19:05:28.117Z,34.30
2022-12-23T19:07:51.944Z,33.27
2022-12-23T19:10:33.294Z,27.98
2022-12-23T19:12:56.163Z,34.10
2022-12-23T19:15:19.567Z,27.10
2022-12-23T19:17:41.717Z,30.20
2022-12-23T19:20:05.457Z,28.17
2022-12-23T19:22:27.558Z,27.65
2022-12-23T19:25:04.535Z,24.63
2022-12-23T19:27:27.416Z,26.47
2022-12-23T19:29:49.331Z,26.47
2022-12-23T19:32:11.335Z,29.23
2022-12-23T19:34:33.445Z,27.53
2022-12-23T19:36:55.301Z,25.80
2022-12-23T19:39:18.451Z,33.53
2022-12-23T19:41:40.351Z,27.93
2022-12-23T19:44:03.400Z,29.03
2022-12-23T19:46:25.455Z,25.43
2022-12-23T19:48:53.936Z,29.23
2022-12-23T19:51:16.000Z,37.00
2022-12-23T19:53:39.572Z,22.67
2022-12-23T19:56:07.508Z,28.92
2022-12-23T19:58:34.781Z,29.17
2022-12-23T20:01:21.741Z,23.67
2022-12-23T20:03:46.202Z,22.43
2022-12-23T20:08:35.672Z,26.27
2022-12-23T20:11:12.594Z,22.80
2022-12-23T20:13:35.913Z,25.47
2022-12-23T20:15:57.931Z,23.33
2022-12-23T20:18:19.910Z,24.67
2022-12-23T20:20:44.309Z,29.37
2022-12-23T20:23:06.331Z,22.67
2022-12-23T20:25:28.423Z,29.20
2022-12-23T20:27:50.608Z,26.23
2022-12-23T20:30:12.956Z,32.20
2022-12-23T20:32:35.228Z,31.27
2022-12-23T20:34:57.181Z,29.90
2022-12-23T20:37:19.205Z,23.00
2022-12-23T20:39:41.219Z,28.60
2022-12-23T20:42:03.974Z,28.43
2022-12-23T20:44:35.566Z,23.60
2022-12-23T20:46:58.670Z,20.90
2022-12-23T20:49:20.760Z,19.90
2022-12-23T20:51:42.698Z,18.40
2022-12-23T20:54:05.030Z,15.53
2022-12-23T20:56:29.459Z,22.17
2022-12-23T21:01:44.570Z,27.73
2022-12-23T21:04:15.877Z,21.17
2022-12-23T21:06:38.356Z,19.67
2022-12-23T21:09:02.645Z,19.93
2022-12-23T21:11:30.588Z,24.97
2022-12-23T21:13:52.642Z,19.60
2022-12-23T21:16:15.599Z,18.87
2022-12-23T21:18:45.770Z,19.53
2022-12-23T21:21:07.956Z,24.47
2022-12-23T21:23:31.024Z,21.00
2022-12-23T21:26:10.978Z,21.87
2022-12-23T21:28:33.384Z,22.50
2022-12-23T21:30:55.417Z,16.93
2022-12-23T21:33:17.327Z,21.33
2022-12-23T21:35:39.190Z,26.83
2022-12-23T21:38:01.259Z,23.63
2022-12-23T21:40:23.314Z,25.00
2022-12-23T21:42:45.464Z,24.43
2022-12-23T21:45:08.281Z,21.43
2022-12-23T21:47:30.166Z,11.87
2022-12-23T21:49:52.075Z,17.67
2022-12-23T21:52:14.178Z,13.83
2022-12-23T21:54:36.617Z,12.20
2022-12-23T21:56:58.674Z,16.70
2022-12-23T21:59:20.754Z,19.43
2022-12-23T22:01:43.881Z,13.80
2022-12-23T22:04:06.276Z,15.23
2022-12-23T22:06:32.475Z,14.37
2022-12-23T22:08:56.891Z,12.60
2022-12-23T22:11:22.899Z,17.30
2022-12-23T22:13:46.019Z,15.63
2022-12-23T22:16:19.145Z,15.47
2022-12-23T22:18:42.298Z,15.30
2022-12-23T22:21:06.653Z,17.83
2022-12-23T22:23:28.576Z,14.98
2022-12-23T22:25:55.542Z,16.77
2022-12-23T22:28:17.463Z,15.23
2022-12-23T22:30:39.356Z,14.97
2022-12-23T22:33:01.164Z,17.63
2022-12-23T22:35:23.178Z,14.20
2022-12-23T22:37:45.099Z,16.17
2022-12-23T22:40:09.234Z,15.23
2022-12-23T22:42:31.078Z,21.30
2022-12-23T22:44:52.971Z,17.73
2022-12-23T22:47:15.207Z,18.80
2022-12-23T22:49:37.182Z,14.07
2022-12-23T22:51:59.333Z,17.70
2022-12-23T22:54:21.240Z,16.20
2022-12-23T22:56:45.809Z,16.37
2022-12-23T22:59:07.783Z,18.10
2022-12-23T23:01:33.350Z,20.70
2022-12-23T23:03:58.036Z,24.57
2022-12-23T23:06:19.956Z,21.77
2022-12-23T23:08:42.521Z,24.33
2022-12-23T23:11:05.767Z,18.97
2022-12-23T23:13:33.774Z,23.60
2022-12-23T23:15:56.200Z,22.30
2022-12-23T23:18:18.113Z,20.50
2022-12-23T23:20:40.283Z,22.73
2022-12-23T23:23:02.294Z,19.73
2022-12-23T23:25:24.805Z,15.23
2022-12-23T23:27:46.759Z,15.60
2022-12-23T23:30:09.734Z,19.70
2022-12-23T23:32:31.858Z,20.23
2022-12-23T23:34:53.846Z,15.90
2022-12-23T23:37:15.822Z,17.53
2022-12-23T23:39:37.729Z,19.43
2022-12-23T23:41:59.655Z,21.47
2022-12-23T23:44:21.804Z,27.10
2022-12-23T23:46:47.783Z,19.50
2022-12-23T23:49:09.918Z,20.77
2022-12-23T23:51:31.847Z,21.13
2022-12-23T23:53:54.177Z,19.23
2022-12-23T23:56:22.040Z,24.47
2022-12-23T23:58:47.046Z,21.73
